Zim Yokohama — A8MY4 — position and weather

sailwx.info

Track history (hours):
 
Tides and Currents Weather Stations Pressure Air Temp Water Temp Dewpoint Dewpoint Depression Visibility Wind Speed Wind Dir Waves Ship Positions

Zim Yokohama

Last reported at 2018-Sep-19 09:17 UTC. Time now 2018-Sep-19 09:41 UTC.
Position N 36°36' W 010°07'.

Length 260 m; draft 12.6 m.

Type: Ship. MMSI: 636013436.

Date/timePositionNaut miles runAvg speedWind from/ knotsBaromVisibWave heightAir tempDewpointWater temp
2018-Sep-19 09:17N 36°36' W 010°07'416.1
2018-Sep-19 09:03N 36°35' W 010°03'216.1
2018-Sep-19 08:55N 36°34' W 010°01'716.0
2018-Sep-19 08:30N 36°31' W 009°53'716.0
2018-Sep-19 08:03N 36°28' W 009°45'1015.9
2018-Sep-19 07:25N 36°24' W 009°34'715.8
2018-Sep-19 06:59N 36°23' W 009°25'816.5
2018-Sep-19 06:30N 36°21' W 009°15'1816.4
2018-Sep-19 05:26N 36°19' W 008°54'816.7
2018-Sep-19 04:57N 36°17' W 008°44'4516.7
2018-Sep-19 02:17N 36°10' W 007°50'717.0
2018-Sep-19 01:53N 36°09' W 007°41'7616.8
2018-Sep-18 21:22N 35°58' W 006°09'516.9
2018-Sep-18 21:03N 35°58' W 006°02'1416.7
2018-Sep-18 20:14N 35°57' W 005°45'316.5
2018-Sep-18 20:02N 35°57' W 005°41'116.6
2018-Sep-18 19:59N 35°57' W 005°40'715.7
2018-Sep-18 19:30N 35°59' W 005°31'614.3
2018-Sep-18 19:03N 36°03' W 005°25'115.8
2018-Sep-18 19:01N 36°04' W 005°24'4 7.8
2018-Sep-18 18:30N 36°08' W 005°25'0 0.0
2018-Sep-18 18:03N 36°08' W 005°25'0 0.0
2018-Sep-18 18:00N 36°08' W 005°25'0 0.0
2018-Sep-18 17:30N 36°08' W 005°25'0 0.0
2018-Sep-18 17:03N 36°08' W 005°25'0 0.1
2018-Sep-18 16:57N 36°08' W 005°25'0 0.0
2018-Sep-18 16:30N 36°08' W 005°25'0 0.0
2018-Sep-18 16:03N 36°08' W 005°25'0 0.0
2018-Sep-18 16:00N 36°08' W 005°25'0 0.0
2018-Sep-18 15:30N 36°08' W 005°25'0 0.0
2018-Sep-18 15:03N 36°08' W 005°25'0 0.0
2018-Sep-18 15:00N 36°08' W 005°25'0 0.0
2018-Sep-18 14:30N 36°08' W 005°25'0 0.0
2018-Sep-18 14:00N 36°08' W 005°25'0 0.0
2018-Sep-18 13:24N 36°08' W 005°25'0 0.0
2018-Sep-18 13:03N 36°08' W 005°25'0 0.1
2018-Sep-18 13:00N 36°08' W 005°25'1 2.2
2018-Sep-18 12:30N 36°08' W 005°24'1 1.9
2018-Sep-18 12:01N 36°07' W 005°24'0 0.0
2018-Sep-18 11:55N 36°07' W 005°24'0 0.0
2018-Sep-18 11:28N 36°07' W 005°24'0 0.0
2018-Sep-18 11:01N 36°07' W 005°24'0 0.1
2018-Sep-18 10:58N 36°07' W 005°24'0 0.0
2018-Sep-18 10:22N 36°07' W 005°24'0 0.0
2018-Sep-18 10:01N 36°07' W 005°24'0 0.0
2018-Sep-18 09:10N 36°07' W 005°24'0 0.2
2018-Sep-18 09:03N 36°07' W 005°24'0 0.5
2018-Sep-18 09:00N 36°07' W 005°24'1 1.4
2018-Sep-18 08:20N 36°06' W 005°24'0 0.4
2018-Sep-18 08:01N 36°06' W 005°24'0 2.0
2018-Sep-18 08:00N 36°06' W 005°24'2 3.3
2018-Sep-18 07:30N 36°04' W 005°23'3 7.8
2018-Sep-18 07:03N 36°04' W 005°19'0 8.2
2018-Sep-18 07:00N 36°04' W 005°18'0 0.9
2018-Sep-18 06:30N 36°04' W 005°18'0 1.0
2018-Sep-18 06:03N 36°04' W 005°18'0 5.4
2018-Sep-18 06:00N 36°04' W 005°17'4 7.6
2018-Sep-18 05:30N 36°04' W 005°13'4 9.1
2018-Sep-18 05:03N 36°05' W 005°08'0 9.2
2018-Sep-18 05:00N 36°05' W 005°07'5 9.2
2018-Sep-18 04:27N 36°06' W 005°01'4 9.1
2018-Sep-18 04:00N 36°06' W 004°56'20410.3
2018-Sep-17 08:10N 37°18' W 000°57'317.1
2018-Sep-17 08:01N 37°20' W 000°55'017.1
2018-Sep-17 08:00N 37°20' W 000°55'918.7
2018-Sep-17 07:31N 37°26' W 000°46'919.7
2018-Sep-17 07:03N 37°32' W 000°37'117.3
2018-Sep-17 07:00N 37°33' W 000°37'1019.8
2018-Sep-17 06:30N 37°40' W 000°29'920.1
2018-Sep-17 06:03N 37°48' W 000°22'120.3
2018-Sep-17 05:59N 37°49' W 000°21'1020.3
2018-Sep-17 05:30N 37°57' W 000°15'8716.2
2018-Sep-17 00:10N 39°24' W 000°14'216.6
2018-Sep-17 00:03N 39°25' W 000°16'114.3
2018-Sep-17 00:01N 39°25' W 000°17'2 4.6
2018-Sep-16 23:31N 39°27' W 000°19'0 0.1
2018-Sep-16 23:02N 39°27' W 000°19'0 0.0
2018-Sep-16 22:59N 39°27' W 000°19'0 0.0
2018-Sep-16 22:29N 39°27' W 000°19'0 0.0
2018-Sep-16 21:32N 39°27' W 000°19'0 0.1
2018-Sep-16 21:29N 39°27' W 000°19'0 0.0
2018-Sep-16 21:02N 39°27' W 000°19'0 0.2
2018-Sep-16 20:59N 39°27' W 000°19'0 0.0
2018-Sep-16 20:29N 39°27' W 000°19'0 0.0
2018-Sep-16 20:02N 39°27' W 000°19'0 0.0
2018-Sep-16 19:59N 39°27' W 000°19'0 0.0
2018-Sep-16 19:29N 39°27' W 000°19'0 0.0
2018-Sep-16 18:59N 39°27' W 000°19'0 0.0
2018-Sep-16 18:29N 39°27' W 000°19'0 0.0
2018-Sep-16 18:02N 39°27' W 000°19'0 0.0
2018-Sep-16 17:59N 39°27' W 000°19'0 0.0
2018-Sep-16 17:29N 39°27' W 000°19'0 0.0
2018-Sep-16 17:02N 39°27' W 000°19'0 0.0
2018-Sep-16 16:53N 39°27' W 000°19'0 0.0
2018-Sep-16 15:35N 39°27' W 000°19'0 0.0
2018-Sep-16 15:26N 39°27' W 000°19'0 0.0
2018-Sep-16 14:38N 39°27' W 000°19'0 0.0
2018-Sep-16 14:26N 39°27' W 000°19'0 0.0
2018-Sep-16 13:29N 39°27' W 000°19'0 0.0
2018-Sep-16 12:59N 39°27' W 000°19'0 0.0
2018-Sep-16 12:29N 39°27' W 000°19'0 0.0
2018-Sep-16 12:02N 39°27' W 000°19'0 0.0
2018-Sep-16 11:59N 39°27' W 000°19'0 0.0
2018-Sep-16 11:20N 39°27' W 000°19'0 0.0
2018-Sep-16 10:53N 39°27' W 000°19'0 0.0
2018-Sep-16 10:14N 39°27' W 000°19'0 0.0
2018-Sep-16 10:02N 39°27' W 000°19'0 0.1
2018-Sep-16 09:59N 39°27' W 000°19'0 0.0
2018-Sep-16 09:23N 39°27' W 000°19'0 0.0
2018-Sep-16 08:59N 39°27' W 000°19'0 0.0
2018-Sep-16 08:29N 39°27' W 000°19'0 0.0
2018-Sep-16 07:59N 39°27' W 000°19'0 0.0
2018-Sep-16 07:29N 39°27' W 000°19'0 0.0
2018-Sep-16 06:59N 39°27' W 000°19'0 0.0
2018-Sep-16 06:29N 39°27' W 000°19'0 0.0
2018-Sep-16 06:02N 39°27' W 000°19'0 0.0
2018-Sep-16 05:59N 39°27' W 000°19'0 0.0
2018-Sep-16 05:29N 39°27' W 000°19'0 0.0
2018-Sep-16 05:02N 39°27' W 000°19'0 0.0
2018-Sep-16 04:59N 39°27' W 000°19'0 0.0
2018-Sep-16 04:29N 39°27' W 000°19'0 0.0
2018-Sep-16 03:59N 39°27' W 000°19'0 0.0
2018-Sep-16 03:29N 39°27' W 000°19'0 0.0
2018-Sep-16 03:02N 39°27' W 000°19'0 0.1
2018-Sep-16 02:56N 39°27' W 000°19'0 0.0
2018-Sep-16 02:29N 39°27' W 000°19'0 0.0
2018-Sep-16 01:23N 39°27' W 000°19'0 0.0
2018-Sep-16 01:02N 39°27' W 000°19'0 0.1
2018-Sep-16 00:59N 39°27' W 000°19'0 0.0
2018-Sep-16 00:29N 39°27' W 000°19'0 0.0
2018-Sep-16 00:02N 39°27' W 000°19'0 0.1
2018-Sep-15 23:59N 39°27' W 000°19'0 0.0
2018-Sep-15 23:29N 39°27' W 000°19'0 0.0
2018-Sep-15 22:44N 39°27' W 000°19'0 0.0
2018-Sep-15 22:29N 39°27' W 000°19'0 0.0
2018-Sep-15 22:02N 39°27' W 000°19'0 0.0
2018-Sep-15 21:59N 39°27' W 000°19'0 0.0
2018-Sep-15 21:29N 39°27' W 000°19'0 0.0
2018-Sep-15 21:02N 39°27' W 000°19'0 0.2
2018-Sep-15 20:59N 39°27' W 000°19'0 0.0
2018-Sep-15 20:29N 39°27' W 000°19'0 0.0
2018-Sep-15 20:02N 39°27' W 000°19'0 0.0
2018-Sep-15 19:59N 39°27' W 000°19'0 0.0
2018-Sep-15 19:26N 39°27' W 000°19'0 0.0
2018-Sep-15 19:02N 39°27' W 000°19'0 0.1
2018-Sep-15 18:59N 39°27' W 000°19'0 0.0
2018-Sep-15 18:14N 39°27' W 000°19'0 0.0
2018-Sep-15 18:02N 39°27' W 000°19'0 0.0
2018-Sep-15 17:56N 39°27' W 000°19'0 0.0
2018-Sep-15 17:29N 39°27' W 000°19'0 0.3
2018-Sep-15 17:03N 39°27' W 000°19'0 3.2
2018-Sep-15 17:00N 39°27' W 000°19'2 4.8
2018-Sep-15 16:30N 39°25' W 000°17'1 2.5
2018-Sep-15 16:03N 39°25' W 000°15'0 4.2
2018-Sep-15 16:00N 39°25' W 000°15'3 5.6
2018-Sep-15 15:29N 39°26' W 000°11'5 9.5
2018-Sep-15 14:59N 39°29' W 000°07'5 9.4
2018-Sep-15 14:30N 39°32' W 000°03'12511.7
2018-Sep-15 03:50N 41°00' E 001°53'612.6
2018-Sep-15 03:22N 41°05' E 001°58'612.6
2018-Sep-15 02:52N 41°10' E 002°03'512.9
2018-Sep-15 02:30N 41°14' E 002°07'511.7
2018-Sep-15 02:03N 41°18' E 002°10'110.7
2018-Sep-15 02:00N 41°18' E 002°10'3 5.2
2018-Sep-15 01:30N 41°21' E 002°10'0 0.0
2018-Sep-15 01:03N 41°21' E 002°10'0 0.2
2018-Sep-15 01:00N 41°21' E 002°10'0 0.0
2018-Sep-15 00:30N 41°21' E 002°10'0 0.0
2018-Sep-15 00:03N 41°21' E 002°10'0 0.1
2018-Sep-15 00:00N 41°21' E 002°10'0 0.0
2018-Sep-14 23:30N 41°21' E 002°10'0 0.0
2018-Sep-14 23:03N 41°21' E 002°10'0 0.1
2018-Sep-14 23:00N 41°21' E 002°10'0 0.0
2018-Sep-14 22:30N 41°21' E 002°10'0 0.0
2018-Sep-14 22:03N 41°21' E 002°10'0 0.1
2018-Sep-14 22:00N 41°21' E 002°10'0 0.0
2018-Sep-14 21:30N 41°21' E 002°10'0 0.0
2018-Sep-14 21:03N 41°21' E 002°10'0 0.0
2018-Sep-14 21:00N 41°21' E 002°10'0 0.0
2018-Sep-14 20:30N 41°21' E 002°10'0 0.0
2018-Sep-14 20:03N 41°21' E 002°10'0 0.1
2018-Sep-14 19:57N 41°21' E 002°10'0 0.0
2018-Sep-14 19:30N 41°21' E 002°10'0 0.0
2018-Sep-14 19:03N 41°21' E 002°10'0 0.2
2018-Sep-14 19:00N 41°21' E 002°10'0 0.0
2018-Sep-14 18:30N 41°21' E 002°10'0 0.0
2018-Sep-14 18:03N 41°21' E 002°10'0 0.0
2018-Sep-14 18:00N 41°21' E 002°10'0 0.0
2018-Sep-14 17:30N 41°21' E 002°10'0 0.0
2018-Sep-14 17:03N 41°21' E 002°10'0 0.0
2018-Sep-14 17:00N 41°21' E 002°10'0 0.0
2018-Sep-14 16:30N 41°21' E 002°10'0 0.0
2018-Sep-14 16:03N 41°21' E 002°10'0 0.0
2018-Sep-14 16:00N 41°21' E 002°10'0 0.0
2018-Sep-14 15:30N 41°21' E 002°10'0 0.0
2018-Sep-14 15:03N 41°21' E 002°10'0 0.1
2018-Sep-14 15:00N 41°21' E 002°10'0 0.0
2018-Sep-14 14:30N 41°21' E 002°10'0 0.0
2018-Sep-14 14:00N 41°21' E 002°10'0 0.0
2018-Sep-14 13:30N 41°21' E 002°10'0 0.0
2018-Sep-14 13:03N 41°21' E 002°10'0 0.0
2018-Sep-14 12:54N 41°21' E 002°10'0 0.0
2018-Sep-14 12:30N 41°21' E 002°10'0 0.0
2018-Sep-14 12:03N 41°21' E 002°10'0 0.1
2018-Sep-14 12:00N 41°21' E 002°10'0 0.0
2018-Sep-14 11:30N 41°21' E 002°10'0 0.0
2018-Sep-14 11:03N 41°21' E 002°10'0 0.1
2018-Sep-14 11:00N 41°21' E 002°10'0 0.8
2018-Sep-14 10:30N 41°21' E 002°10'3 7.3
2018-Sep-14 10:03N 41°17' E 002°11'0 7.8
2018-Sep-14 10:00N 41°17' E 002°11'5 9.5
2018-Sep-14 09:30N 41°15' E 002°17'715.5
2018-Sep-14 09:04N 41°11' E 002°25'117.4
2018-Sep-14 09:01N 41°11' E 002°26'16718.5
2018-Sep-14 00:00N 39°48' E 005°36'85917.7 320 / 101016.010.8 24.021.0
2018-Sep-11 23:36N 37°29' E 023°41'220.7
2018-Sep-11 23:30N 37°31' E 023°41'920.7
2018-Sep-11 23:03N 37°41' E 023°41'121.1
2018-Sep-11 23:01N 37°41' E 023°41'1019.7
2018-Sep-11 22:30N 37°51' E 023°37'613.6
2018-Sep-11 22:03N 37°57' E 023°36'0 5.2
2018-Sep-11 22:00N 37°57' E 023°36'0 0.9
2018-Sep-11 21:30N 37°57' E 023°35'0 0.0
2018-Sep-11 21:03N 37°57' E 023°35'0 0.2
2018-Sep-11 21:00N 37°57' E 023°35'0 0.0
2018-Sep-11 20:30N 37°57' E 023°35'0 0.0
2018-Sep-11 20:03N 37°57' E 023°35'0 0.2
2018-Sep-11 20:00N 37°57' E 023°35'0 0.0
2018-Sep-11 19:30N 37°57' E 023°35'0 0.0
2018-Sep-11 19:03N 37°57' E 023°35'0 0.1
2018-Sep-11 19:00N 37°57' E 023°35'0 0.0
2018-Sep-11 18:30N 37°57' E 023°35'0 0.0
2018-Sep-11 18:03N 37°57' E 023°35'0 0.0
2018-Sep-11 18:00N 37°57' E 023°35'0 0.0
2018-Sep-11 17:30N 37°57' E 023°35'0 0.0
2018-Sep-11 17:03N 37°57' E 023°35'0 0.0
2018-Sep-11 17:00N 37°57' E 023°35'0 0.0
2018-Sep-11 16:30N 37°57' E 023°35'0 0.0
2018-Sep-11 16:03N 37°57' E 023°35'0 0.2
2018-Sep-11 16:00N 37°57' E 023°35'0 0.0
2018-Sep-11 15:27N 37°57' E 023°35'0 0.0
2018-Sep-11 15:03N 37°57' E 023°35'0 0.2
2018-Sep-11 15:00N 37°57' E 023°35'0 0.0
2018-Sep-11 14:30N 37°57' E 023°35'0 0.0
2018-Sep-11 14:00N 37°57' E 023°35'0 0.0
2018-Sep-11 13:30N 37°57' E 023°35'0 0.0
2018-Sep-11 13:03N 37°57' E 023°35'0 0.1
2018-Sep-11 13:00N 37°57' E 023°35'0 0.0
2018-Sep-11 12:30N 37°57' E 023°35'0 0.0
2018-Sep-11 12:03N 37°57' E 023°35'0 0.1
2018-Sep-11 12:00N 37°57' E 023°35'0 0.0
2018-Sep-11 11:30N 37°57' E 023°35'0 0.0
2018-Sep-11 11:03N 37°57' E 023°35'0 0.2
2018-Sep-11 11:00N 37°57' E 023°35'0 0.1
2018-Sep-11 10:30N 37°57' E 023°35'0 0.0
2018-Sep-11 10:00N 37°57' E 023°35'0 0.0
2018-Sep-11 09:30N 37°57' E 023°35'0 0.0
2018-Sep-11 09:03N 37°57' E 023°35'0 0.1
2018-Sep-11 09:00N 37°57' E 023°35'0 0.0
2018-Sep-11 08:30N 37°57' E 023°35'0 0.0
2018-Sep-11 08:03N 37°57' E 023°35'0 0.1
2018-Sep-11 08:00N 37°57' E 023°35'0 0.0
2018-Sep-11 07:30N 37°57' E 023°35'0 0.0
2018-Sep-11 07:03N 37°57' E 023°35'0 0.1
2018-Sep-11 07:00N 37°57' E 023°35'0 0.0
2018-Sep-11 06:30N 37°57' E 023°35'0 0.0
2018-Sep-11 06:03N 37°57' E 023°35'0 0.1
2018-Sep-11 05:57N 37°57' E 023°35'0 0.0
2018-Sep-11 05:30N 37°57' E 023°35'0 0.0
2018-Sep-11 05:03N 37°57' E 023°35'0 0.2
2018-Sep-11 05:00N 37°57' E 023°35'0 0.0
2018-Sep-11 04:30N 37°57' E 023°35'0 0.0
2018-Sep-11 04:03N 37°57' E 023°35'0 0.1
2018-Sep-11 04:00N 37°57' E 023°35'0 0.0
2018-Sep-11 03:30N 37°57' E 023°35'0 0.0
2018-Sep-11 03:03N 37°57' E 023°35'0 0.1
2018-Sep-11 03:00N 37°57' E 023°35'0 0.0
2018-Sep-11 02:30N 37°57' E 023°35'0 0.0
2018-Sep-11 02:03N 37°57' E 023°35'0 0.1
2018-Sep-11 02:00N 37°57' E 023°35'0 0.0
2018-Sep-11 01:30N 37°57' E 023°35'0 0.0
2018-Sep-11 01:03N 37°57' E 023°35'0 0.1
2018-Sep-11 01:00N 37°57' E 023°35'0 0.0
2018-Sep-11 00:30N 37°57' E 023°35'0 0.0
2018-Sep-11 00:03N 37°57' E 023°35'0 0.1
2018-Sep-11 00:00N 37°57' E 023°35'0 0.0
2018-Sep-10 23:30N 37°57' E 023°35'0 0.0
2018-Sep-10 23:03N 37°57' E 023°35'0 0.2
2018-Sep-10 23:00N 37°57' E 023°35'0 0.0
2018-Sep-10 22:30N 37°57' E 023°35'0 0.0
2018-Sep-10 22:03N 37°57' E 023°35'0 0.1
2018-Sep-10 22:00N 37°57' E 023°35'0 0.0
2018-Sep-10 21:30N 37°57' E 023°35'0 0.0
2018-Sep-10 21:03N 37°57' E 023°35'0 0.0
2018-Sep-10 21:00N 37°57' E 023°35'1 2.5
2018-Sep-10 20:31N 37°56' E 023°35'3 5.7
2018-Sep-10 20:04N 37°54' E 023°36'0 2.0
2018-Sep-10 20:01N 37°54' E 023°36'1 2.8
2018-Sep-10 19:30N 37°53' E 023°38'716.0
2018-Sep-10 19:02N 37°47' E 023°42'118.7
2018-Sep-10 19:00N 37°46' E 023°43'1118.2
2018-Sep-10 18:23N 37°37' E 023°51'616.0
2018-Sep-10 18:00N 37°34' E 023°58'2016.6
2018-Sep-10 16:47N 37°46' E 024°20'  
Track history (hours):
 
Tides and Currents Weather Stations Pressure Air Temp Water Temp Dewpoint Dewpoint Depression Visibility Wind Speed Wind Dir Waves Ship Positions

Zim Yokohama

Last reported at 2018-Sep-19 09:17 UTC. Time now 2018-Sep-19 09:41 UTC.
Position N 36°36' W 010°07'.

Length 260 m; draft 12.6 m.

Type: Ship. MMSI: 636013436.

Date/timePositionNaut miles runAvg speedWind from/ knotsBaromVisibWave heightAir tempDewpointWater temp
2018-Sep-19 09:17N 36°36' W 010°07'416.1
2018-Sep-19 09:03N 36°35' W 010°03'216.1
2018-Sep-19 08:55N 36°34' W 010°01'716.0
2018-Sep-19 08:30N 36°31' W 009°53'716.0
2018-Sep-19 08:03N 36°28' W 009°45'1015.9
2018-Sep-19 07:25N 36°24' W 009°34'715.8
2018-Sep-19 06:59N 36°23' W 009°25'816.5
2018-Sep-19 06:30N 36°21' W 009°15'1816.4
2018-Sep-19 05:26N 36°19' W 008°54'816.7
2018-Sep-19 04:57N 36°17' W 008°44'4516.7
2018-Sep-19 02:17N 36°10' W 007°50'717.0
2018-Sep-19 01:53N 36°09' W 007°41'7616.8
2018-Sep-18 21:22N 35°58' W 006°09'516.9
2018-Sep-18 21:03N 35°58' W 006°02'1416.7
2018-Sep-18 20:14N 35°57' W 005°45'316.5
2018-Sep-18 20:02N 35°57' W 005°41'116.6
2018-Sep-18 19:59N 35°57' W 005°40'715.7
2018-Sep-18 19:30N 35°59' W 005°31'614.3
2018-Sep-18 19:03N 36°03' W 005°25'115.8
2018-Sep-18 19:01N 36°04' W 005°24'4 7.8
2018-Sep-18 18:30N 36°08' W 005°25'0 0.0
2018-Sep-18 18:03N 36°08' W 005°25'0 0.0
2018-Sep-18 18:00N 36°08' W 005°25'0 0.0
2018-Sep-18 17:30N 36°08' W 005°25'0 0.0
2018-Sep-18 17:03N 36°08' W 005°25'0 0.1
2018-Sep-18 16:57N 36°08' W 005°25'0 0.0
2018-Sep-18 16:30N 36°08' W 005°25'0 0.0
2018-Sep-18 16:03N 36°08' W 005°25'0 0.0
2018-Sep-18 16:00N 36°08' W 005°25'0 0.0
2018-Sep-18 15:30N 36°08' W 005°25'0 0.0
2018-Sep-18 15:03N 36°08' W 005°25'0 0.0
2018-Sep-18 15:00N 36°08' W 005°25'0 0.0
2018-Sep-18 14:30N 36°08' W 005°25'0 0.0
2018-Sep-18 14:00N 36°08' W 005°25'0 0.0
2018-Sep-18 13:24N 36°08' W 005°25'0 0.0
2018-Sep-18 13:03N 36°08' W 005°25'0 0.1
2018-Sep-18 13:00N 36°08' W 005°25'1 2.2
2018-Sep-18 12:30N 36°08' W 005°24'1 1.9
2018-Sep-18 12:01N 36°07' W 005°24'0 0.0
2018-Sep-18 11:55N 36°07' W 005°24'0 0.0
2018-Sep-18 11:28N 36°07' W 005°24'0 0.0
2018-Sep-18 11:01N 36°07' W 005°24'0 0.1
2018-Sep-18 10:58N 36°07' W 005°24'0 0.0
2018-Sep-18 10:22N 36°07' W 005°24'0 0.0
2018-Sep-18 10:01N 36°07' W 005°24'0 0.0
2018-Sep-18 09:10N 36°07' W 005°24'0 0.2
2018-Sep-18 09:03N 36°07' W 005°24'0 0.5
2018-Sep-18 09:00N 36°07' W 005°24'1 1.4
2018-Sep-18 08:20N 36°06' W 005°24'0 0.4
2018-Sep-18 08:01N 36°06' W 005°24'0 2.0
2018-Sep-18 08:00N 36°06' W 005°24'2 3.3
2018-Sep-18 07:30N 36°04' W 005°23'3 7.8
2018-Sep-18 07:03N 36°04' W 005°19'0 8.2
2018-Sep-18 07:00N 36°04' W 005°18'0 0.9
2018-Sep-18 06:30N 36°04' W 005°18'0 1.0
2018-Sep-18 06:03N 36°04' W 005°18'0 5.4
2018-Sep-18 06:00N 36°04' W 005°17'4 7.6
2018-Sep-18 05:30N 36°04' W 005°13'4 9.1
2018-Sep-18 05:03N 36°05' W 005°08'0 9.2
2018-Sep-18 05:00N 36°05' W 005°07'5 9.2
2018-Sep-18 04:27N 36°06' W 005°01'4 9.1
2018-Sep-18 04:00N 36°06' W 004°56'20410.3
2018-Sep-17 08:10N 37°18' W 000°57'317.1
2018-Sep-17 08:01N 37°20' W 000°55'017.1
2018-Sep-17 08:00N 37°20' W 000°55'918.7
2018-Sep-17 07:31N 37°26' W 000°46'919.7
2018-Sep-17 07:03N 37°32' W 000°37'117.3
2018-Sep-17 07:00N 37°33' W 000°37'1019.8
2018-Sep-17 06:30N 37°40' W 000°29'920.1
2018-Sep-17 06:03N 37°48' W 000°22'120.3
2018-Sep-17 05:59N 37°49' W 000°21'1020.3
2018-Sep-17 05:30N 37°57' W 000°15'8716.2
2018-Sep-17 00:10N 39°24' W 000°14'216.6
2018-Sep-17 00:03N 39°25' W 000°16'114.3
2018-Sep-17 00:01N 39°25' W 000°17'2 4.6
2018-Sep-16 23:31N 39°27' W 000°19'0 0.1
2018-Sep-16 23:02N 39°27' W 000°19'0 0.0
2018-Sep-16 22:59N 39°27' W 000°19'0 0.0
2018-Sep-16 22:29N 39°27' W 000°19'0 0.0
2018-Sep-16 21:32N 39°27' W 000°19'0 0.1
2018-Sep-16 21:29N 39°27' W 000°19'0 0.0
2018-Sep-16 21:02N 39°27' W 000°19'0 0.2
2018-Sep-16 20:59N 39°27' W 000°19'0 0.0
2018-Sep-16 20:29N 39°27' W 000°19'0 0.0
2018-Sep-16 20:02N 39°27' W 000°19'0 0.0
2018-Sep-16 19:59N 39°27' W 000°19'0 0.0
2018-Sep-16 19:29N 39°27' W 000°19'0 0.0
2018-Sep-16 18:59N 39°27' W 000°19'0 0.0
2018-Sep-16 18:29N 39°27' W 000°19'0 0.0
2018-Sep-16 18:02N 39°27' W 000°19'0 0.0
2018-Sep-16 17:59N 39°27' W 000°19'0 0.0
2018-Sep-16 17:29N 39°27' W 000°19'0 0.0
2018-Sep-16 17:02N 39°27' W 000°19'0 0.0
2018-Sep-16 16:53N 39°27' W 000°19'0 0.0
2018-Sep-16 15:35N 39°27' W 000°19'0 0.0
2018-Sep-16 15:26N 39°27' W 000°19'0 0.0
2018-Sep-16 14:38N 39°27' W 000°19'0 0.0
2018-Sep-16 14:26N 39°27' W 000°19'0 0.0
2018-Sep-16 13:29N 39°27' W 000°19'0 0.0
2018-Sep-16 12:59N 39°27' W 000°19'0 0.0
2018-Sep-16 12:29N 39°27' W 000°19'0 0.0
2018-Sep-16 12:02N 39°27' W 000°19'0 0.0
2018-Sep-16 11:59N 39°27' W 000°19'0 0.0
2018-Sep-16 11:20N 39°27' W 000°19'0 0.0
2018-Sep-16 10:53N 39°27' W 000°19'0 0.0
2018-Sep-16 10:14N 39°27' W 000°19'0 0.0
2018-Sep-16 10:02N 39°27' W 000°19'0 0.1
2018-Sep-16 09:59N 39°27' W 000°19'0 0.0
2018-Sep-16 09:23N 39°27' W 000°19'0 0.0
2018-Sep-16 08:59N 39°27' W 000°19'0 0.0
2018-Sep-16 08:29N 39°27' W 000°19'0 0.0
2018-Sep-16 07:59N 39°27' W 000°19'0 0.0
2018-Sep-16 07:29N 39°27' W 000°19'0 0.0
2018-Sep-16 06:59N 39°27' W 000°19'0 0.0
2018-Sep-16 06:29N 39°27' W 000°19'0 0.0
2018-Sep-16 06:02N 39°27' W 000°19'0 0.0
2018-Sep-16 05:59N 39°27' W 000°19'0 0.0
2018-Sep-16 05:29N 39°27' W 000°19'0 0.0
2018-Sep-16 05:02N 39°27' W 000°19'0 0.0
2018-Sep-16 04:59N 39°27' W 000°19'0 0.0
2018-Sep-16 04:29N 39°27' W 000°19'0 0.0
2018-Sep-16 03:59N 39°27' W 000°19'0 0.0
2018-Sep-16 03:29N 39°27' W 000°19'0 0.0
2018-Sep-16 03:02N 39°27' W 000°19'0 0.1
2018-Sep-16 02:56N 39°27' W 000°19'0 0.0
2018-Sep-16 02:29N 39°27' W 000°19'0 0.0
2018-Sep-16 01:23N 39°27' W 000°19'0 0.0
2018-Sep-16 01:02N 39°27' W 000°19'0 0.1
2018-Sep-16 00:59N 39°27' W 000°19'0 0.0
2018-Sep-16 00:29N 39°27' W 000°19'0 0.0
2018-Sep-16 00:02N 39°27' W 000°19'0 0.1
2018-Sep-15 23:59N 39°27' W 000°19'0 0.0
2018-Sep-15 23:29N 39°27' W 000°19'0 0.0
2018-Sep-15 22:44N 39°27' W 000°19'0 0.0
2018-Sep-15 22:29N 39°27' W 000°19'0 0.0
2018-Sep-15 22:02N 39°27' W 000°19'0 0.0
2018-Sep-15 21:59N 39°27' W 000°19'0 0.0
2018-Sep-15 21:29N 39°27' W 000°19'0 0.0
2018-Sep-15 21:02N 39°27' W 000°19'0 0.2
2018-Sep-15 20:59N 39°27' W 000°19'0 0.0
2018-Sep-15 20:29N 39°27' W 000°19'0 0.0
2018-Sep-15 20:02N 39°27' W 000°19'0 0.0
2018-Sep-15 19:59N 39°27' W 000°19'0 0.0
2018-Sep-15 19:26N 39°27' W 000°19'0 0.0
2018-Sep-15 19:02N 39°27' W 000°19'0 0.1
2018-Sep-15 18:59N 39°27' W 000°19'0 0.0
2018-Sep-15 18:14N 39°27' W 000°19'0 0.0
2018-Sep-15 18:02N 39°27' W 000°19'0 0.0
2018-Sep-15 17:56N 39°27' W 000°19'0 0.0
2018-Sep-15 17:29N 39°27' W 000°19'0 0.3
2018-Sep-15 17:03N 39°27' W 000°19'0 3.2
2018-Sep-15 17:00N 39°27' W 000°19'2 4.8
2018-Sep-15 16:30N 39°25' W 000°17'1 2.5
2018-Sep-15 16:03N 39°25' W 000°15'0 4.2
2018-Sep-15 16:00N 39°25' W 000°15'3 5.6
2018-Sep-15 15:29N 39°26' W 000°11'5 9.5
2018-Sep-15 14:59N 39°29' W 000°07'5 9.4
2018-Sep-15 14:30N 39°32' W 000°03'12511.7
2018-Sep-15 03:50N 41°00' E 001°53'612.6
2018-Sep-15 03:22N 41°05' E 001°58'612.6
2018-Sep-15 02:52N 41°10' E 002°03'512.9
2018-Sep-15 02:30N 41°14' E 002°07'511.7
2018-Sep-15 02:03N 41°18' E 002°10'110.7
2018-Sep-15 02:00N 41°18' E 002°10'3 5.2
2018-Sep-15 01:30N 41°21' E 002°10'0 0.0
2018-Sep-15 01:03N 41°21' E 002°10'0 0.2
2018-Sep-15 01:00N 41°21' E 002°10'0 0.0
2018-Sep-15 00:30N 41°21' E 002°10'0 0.0
2018-Sep-15 00:03N 41°21' E 002°10'0 0.1
2018-Sep-15 00:00N 41°21' E 002°10'0 0.0
2018-Sep-14 23:30N 41°21' E 002°10'0 0.0
2018-Sep-14 23:03N 41°21' E 002°10'0 0.1
2018-Sep-14 23:00N 41°21' E 002°10'0 0.0
2018-Sep-14 22:30N 41°21' E 002°10'0 0.0
2018-Sep-14 22:03N 41°21' E 002°10'0 0.1
2018-Sep-14 22:00N 41°21' E 002°10'0 0.0
2018-Sep-14 21:30N 41°21' E 002°10'0 0.0
2018-Sep-14 21:03N 41°21' E 002°10'0 0.0
2018-Sep-14 21:00N 41°21' E 002°10'0 0.0
2018-Sep-14 20:30N 41°21' E 002°10'0 0.0
2018-Sep-14 20:03N 41°21' E 002°10'0 0.1
2018-Sep-14 19:57N 41°21' E 002°10'0 0.0
2018-Sep-14 19:30N 41°21' E 002°10'0 0.0
2018-Sep-14 19:03N 41°21' E 002°10'0 0.2
2018-Sep-14 19:00N 41°21' E 002°10'0 0.0
2018-Sep-14 18:30N 41°21' E 002°10'0 0.0
2018-Sep-14 18:03N 41°21' E 002°10'0 0.0
2018-Sep-14 18:00N 41°21' E 002°10'0 0.0
2018-Sep-14 17:30N 41°21' E 002°10'0 0.0
2018-Sep-14 17:03N 41°21' E 002°10'0 0.0
2018-Sep-14 17:00N 41°21' E 002°10'0 0.0
2018-Sep-14 16:30N 41°21' E 002°10'0 0.0
2018-Sep-14 16:03N 41°21' E 002°10'0 0.0
2018-Sep-14 16:00N 41°21' E 002°10'0 0.0
2018-Sep-14 15:30N 41°21' E 002°10'0 0.0
2018-Sep-14 15:03N 41°21' E 002°10'0 0.1
2018-Sep-14 15:00N 41°21' E 002°10'0 0.0
2018-Sep-14 14:30N 41°21' E 002°10'0 0.0
2018-Sep-14 14:00N 41°21' E 002°10'0 0.0
2018-Sep-14 13:30N 41°21' E 002°10'0 0.0
2018-Sep-14 13:03N 41°21' E 002°10'0 0.0
2018-Sep-14 12:54N 41°21' E 002°10'0 0.0
2018-Sep-14 12:30N 41°21' E 002°10'0 0.0
2018-Sep-14 12:03N 41°21' E 002°10'0 0.1
2018-Sep-14 12:00N 41°21' E 002°10'0 0.0
2018-Sep-14 11:30N 41°21' E 002°10'0 0.0
2018-Sep-14 11:03N 41°21' E 002°10'0 0.1
2018-Sep-14 11:00N 41°21' E 002°10'0 0.8
2018-Sep-14 10:30N 41°21' E 002°10'3 7.3
2018-Sep-14 10:03N 41°17' E 002°11'0 7.8
2018-Sep-14 10:00N 41°17' E 002°11'5 9.5
2018-Sep-14 09:30N 41°15' E 002°17'715.5
2018-Sep-14 09:04N 41°11' E 002°25'117.4
2018-Sep-14 09:01N 41°11' E 002°26'16718.5
2018-Sep-14 00:00N 39°48' E 005°36'85917.7 320 / 101016.010.8 24.021.0
2018-Sep-11 23:36N 37°29' E 023°41'220.7
2018-Sep-11 23:30N 37°31' E 023°41'920.7
2018-Sep-11 23:03N 37°41' E 023°41'121.1
2018-Sep-11 23:01N 37°41' E 023°41'1019.7
2018-Sep-11 22:30N 37°51' E 023°37'613.6
2018-Sep-11 22:03N 37°57' E 023°36'0 5.2
2018-Sep-11 22:00N 37°57' E 023°36'0 0.9
2018-Sep-11 21:30N 37°57' E 023°35'0 0.0
2018-Sep-11 21:03N 37°57' E 023°35'0 0.2
2018-Sep-11 21:00N 37°57' E 023°35'0 0.0
2018-Sep-11 20:30N 37°57' E 023°35'0 0.0
2018-Sep-11 20:03N 37°57' E 023°35'0 0.2
2018-Sep-11 20:00N 37°57' E 023°35'0 0.0
2018-Sep-11 19:30N 37°57' E 023°35'0 0.0
2018-Sep-11 19:03N 37°57' E 023°35'0 0.1
2018-Sep-11 19:00N 37°57' E 023°35'0 0.0
2018-Sep-11 18:30N 37°57' E 023°35'0 0.0
2018-Sep-11 18:03N 37°57' E 023°35'0 0.0
2018-Sep-11 18:00N 37°57' E 023°35'0 0.0
2018-Sep-11 17:30N 37°57' E 023°35'0 0.0
2018-Sep-11 17:03N 37°57' E 023°35'0 0.0
2018-Sep-11 17:00N 37°57' E 023°35'0 0.0
2018-Sep-11 16:30N 37°57' E 023°35'0 0.0
2018-Sep-11 16:03N 37°57' E 023°35'0 0.2
2018-Sep-11 16:00N 37°57' E 023°35'0 0.0
2018-Sep-11 15:27N 37°57' E 023°35'0 0.0
2018-Sep-11 15:03N 37°57' E 023°35'0 0.2
2018-Sep-11 15:00N 37°57' E 023°35'0 0.0
2018-Sep-11 14:30N 37°57' E 023°35'0 0.0
2018-Sep-11 14:00N 37°57' E 023°35'0 0.0
2018-Sep-11 13:30N 37°57' E 023°35'0 0.0
2018-Sep-11 13:03N 37°57' E 023°35'0 0.1
2018-Sep-11 13:00N 37°57' E 023°35'0 0.0
2018-Sep-11 12:30N 37°57' E 023°35'0 0.0
2018-Sep-11 12:03N 37°57' E 023°35'0 0.1
2018-Sep-11 12:00N 37°57' E 023°35'0 0.0
2018-Sep-11 11:30N 37°57' E 023°35'0 0.0
2018-Sep-11 11:03N 37°57' E 023°35'0 0.2
2018-Sep-11 11:00N 37°57' E 023°35'0 0.1
2018-Sep-11 10:30N 37°57' E 023°35'0 0.0
2018-Sep-11 10:00N 37°57' E 023°35'0 0.0
2018-Sep-11 09:30N 37°57' E 023°35'0 0.0
2018-Sep-11 09:03N 37°57' E 023°35'0 0.1
2018-Sep-11 09:00N 37°57' E 023°35'0 0.0
2018-Sep-11 08:30N 37°57' E 023°35'0 0.0
2018-Sep-11 08:03N 37°57' E 023°35'0 0.1
2018-Sep-11 08:00N 37°57' E 023°35'0 0.0
2018-Sep-11 07:30N 37°57' E 023°35'0 0.0
2018-Sep-11 07:03N 37°57' E 023°35'0 0.1
2018-Sep-11 07:00N 37°57' E 023°35'0 0.0
2018-Sep-11 06:30N 37°57' E 023°35'0 0.0
2018-Sep-11 06:03N 37°57' E 023°35'0 0.1
2018-Sep-11 05:57N 37°57' E 023°35'0 0.0
2018-Sep-11 05:30N 37°57' E 023°35'0 0.0
2018-Sep-11 05:03N 37°57' E 023°35'0 0.2
2018-Sep-11 05:00N 37°57' E 023°35'0 0.0
2018-Sep-11 04:30N 37°57' E 023°35'0 0.0
2018-Sep-11 04:03N 37°57' E 023°35'0 0.1
2018-Sep-11 04:00N 37°57' E 023°35'0 0.0
2018-Sep-11 03:30N 37°57' E 023°35'0 0.0
2018-Sep-11 03:03N 37°57' E 023°35'0 0.1
2018-Sep-11 03:00N 37°57' E 023°35'0 0.0
2018-Sep-11 02:30N 37°57' E 023°35'0 0.0
2018-Sep-11 02:03N 37°57' E 023°35'0 0.1
2018-Sep-11 02:00N 37°57' E 023°35'0 0.0
2018-Sep-11 01:30N 37°57' E 023°35'0 0.0
2018-Sep-11 01:03N 37°57' E 023°35'0 0.1
2018-Sep-11 01:00N 37°57' E 023°35'0 0.0
2018-Sep-11 00:30N 37°57' E 023°35'0 0.0
2018-Sep-11 00:03N 37°57' E 023°35'0 0.1
2018-Sep-11 00:00N 37°57' E 023°35'0 0.0
2018-Sep-10 23:30N 37°57' E 023°35'0 0.0
2018-Sep-10 23:03N 37°57' E 023°35'0 0.2
2018-Sep-10 23:00N 37°57' E 023°35'0 0.0
2018-Sep-10 22:30N 37°57' E 023°35'0 0.0
2018-Sep-10 22:03N 37°57' E 023°35'0 0.1
2018-Sep-10 22:00N 37°57' E 023°35'0 0.0
2018-Sep-10 21:30N 37°57' E 023°35'0 0.0
2018-Sep-10 21:03N 37°57' E 023°35'0 0.0
2018-Sep-10 21:00N 37°57' E 023°35'1 2.5
2018-Sep-10 20:31N 37°56' E 023°35'3 5.7
2018-Sep-10 20:04N 37°54' E 023°36'0 2.0
2018-Sep-10 20:01N 37°54' E 023°36'1 2.8
2018-Sep-10 19:30N 37°53' E 023°38'716.0
2018-Sep-10 19:02N 37°47' E 023°42'118.7
2018-Sep-10 19:00N 37°46' E 023°43'1118.2
2018-Sep-10 18:23N 37°37' E 023°51'616.0
2018-Sep-10 18:00N 37°34' E 023°58'2016.6
2018-Sep-10 16:47N 37°46' E 024°20'  

Dump ship's entire track history